TimeCST,TemperatureF,Dew PointF,Humidity,Sea Level PressureIn,VisibilityMPH,Wind Direction,Wind SpeedMPH,Gust SpeedMPH,PrecipitationIn,Events,Conditions,WindDirDegrees,DateUTC
12:53 AM,23.0,15.1,72,30.14,10.0,WNW,8.1,-,N/A,,Clear,290,2013-02-19 06:53:00
1:53 AM,21.9,16.0,78,30.15,10.0,SW,10.4,-,N/A,,Clear,230,2013-02-19 07:53:00
2:53 AM,21.0,14.0,74,30.17,10.0,NNW,6.9,-,N/A,,Clear,330,2013-02-19 08:53:00
3:53 AM,24.1,16.0,71,30.18,10.0,NW,9.2,-,N/A,,Clear,310,2013-02-19 09:53:00
4:53 AM,24.1,16.0,71,30.21,10.0,WNW,12.7,-,N/A,,Clear,290,2013-02-19 10:53:00
5:53 AM,25.0,16.0,69,30.22,10.0,WNW,13.8,20.7,N/A,,Clear,300,2013-02-19 11:53:00
6:53 AM,23.0,16.0,74,30.25,10.0,NNW,12.7,-,N/A,,Clear,330,2013-02-19 12:53:00
7:53 AM,24.1,16.0,71,30.28,10.0,NW,16.1,-,N/A,,Clear,310,2013-02-19 13:53:00
8:53 AM,25.0,12.9,60,30.32,10.0,NW,23.0,32.2,N/A,,Clear,320,2013-02-19 14:53:00
9:53 AM,26.1,9.0,49,30.35,10.0,NW,20.7,26.5,N/A,,Clear,320,2013-02-19 15:53:00
10:53 AM,28.9,9.0,43,30.36,10.0,NW,12.7,24.2,N/A,,Clear,320,2013-02-19 16:53:00
12:53 PM,34.0,3.9,28,30.36,10.0,NW,12.7,20.7,N/A,,Clear,320,2013-02-19 18:53:00
1:53 PM,35.1,1.0,24,30.33,10.0,NNW,16.1,24.2,N/A,,Clear,330,2013-02-19 19:53:00
2:53 PM,36.0,3.0,25,30.32,10.0,North,10.4,-,N/A,,Clear,350,2013-02-19 20:53:00
3:53 PM,36.0,-0.9,21,30.32,10.0,NNW,13.8,18.4,N/A,,Clear,340,2013-02-19 21:53:00
4:53 PM,35.1,-0.9,22,30.31,10.0,NNW,11.5,-,N/A,,Clear,340,2013-02-19 22:53:00
6:53 PM,24.1,-0.0,35,30.32,10.0,Calm,Calm,-,N/A,,Clear,0,2013-02-20 00:53:00
7:53 PM,27.0,1.0,33,30.33,10.0,NNE,4.6,-,N/A,,Clear,30,2013-02-20 01:53:00
8:53 PM,24.1,3.9,42,30.35,10.0,NNE,5.8,-,N/A,,Clear,30,2013-02-20 02:53:00
9:53 PM,23.0,3.9,44,30.35,10.0,NNE,3.5,-,N/A,,Clear,30,2013-02-20 03:53:00
10:53 PM,19.9,6.1,55,30.38,10.0,Calm,Calm,-,N/A,,Clear,0,2013-02-20 04:53:00
11:53 PM,19.9,5.0,52,30.39,10.0,NNW,3.5,-,N/A,,Clear,340,2013-02-20 05:53:00